sensor_id;sensor_type;location;lat;lon;timestamp;pressure;altitude;pressure_sealevel;temperature;humidity
1832;BME280;1680;48.106;11.708;2023-12-07T00:01:07;95721.88;;;2.35;100.00
1832;BME280;1680;48.106;11.708;2023-12-07T00:03:34;95713.84;;;2.30;100.00
1832;BME280;1680;48.106;11.708;2023-12-07T00:06:02;95724.03;;;2.24;100.00
1832;BME280;1680;48.106;11.708;2023-12-07T00:08:29;95730.47;;;2.28;100.00
1832;BME280;1680;48.106;11.708;2023-12-07T00:10:56;95727.38;;;2.32;100.00
1832;BME280;1680;48.106;11.708;2023-12-07T00:13:24;95723.88;;;2.56;100.00
1832;BME280;1680;48.106;11.708;2023-12-07T00:15:51;95733.13;;;2.50;100.00
1832;BME280;1680;48.106;11.708;2023-12-07T00:18:19;95733.31;;;2.49;100.00
1832;BME280;1680;48.106;11.708;2023-12-07T00:20:46;95733.63;;;2.54;100.00
1832;BME280;1680;48.106;11.708;2023-12-07T00:23:13;95732.41;;;2.34;100.00
1832;BME280;1680;48.106;11.708;2023-12-07T00:25:40;95737.06;;;2.46;100.00
1832;BME280;1680;48.106;11.708;2023-12-07T00:28:07;95736.47;;;2.28;100.00
1832;BME280;1680;48.106;11.708;2023-12-07T00:30:35;95739.13;;;2.04;100.00
1832;BME280;1680;48.106;11.708;2023-12-07T00:33:02;95748.53;;;1.89;100.00
1832;BME280;1680;48.106;11.708;2023-12-07T00:35:30;95744.00;;;1.76;100.00
1832;BME280;1680;48.106;11.708;2023-12-07T00:37:57;95750.66;;;1.70;100.00
1832;BME280;1680;48.106;11.708;2023-12-07T00:40:24;95743.06;;;1.61;100.00
1832;BME280;1680;48.106;11.708;2023-12-07T00:42:51;95754.38;;;1.60;100.00
1832;BME280;1680;48.106;11.708;2023-12-07T00:45:18;95749.38;;;1.58;100.00
1832;BME280;1680;48.106;11.708;2023-12-07T00:47:46;95745.16;;;1.57;100.00
1832;BME280;1680;48.106;11.708;2023-12-07T00:50:14;95723.38;;;1.36;100.00
1832;BME280;1680;48.106;11.708;2023-12-07T00:52:41;95757.91;;;1.43;100.00
1832;BME280;1680;48.106;11.708;2023-12-07T00:55:08;95753.09;;;1.40;100.00
1832;BME280;1680;48.106;11.708;2023-12-07T00:57:35;95761.97;;;1.37;100.00
1832;BME280;1680;48.106;11.708;2023-12-07T01:00:03;95760.50;;;1.35;100.00
1832;BME280;1680;48.106;11.708;2023-12-07T01:02:31;95762.13;;;1.36;100.00
1832;BME280;1680;48.106;11.708;2023-12-07T01:05:00;95762.13;;;1.36;100.00
1832;BME280;1680;48.106;11.708;2023-12-07T01:07:27;95771.50;;;1.37;100.00
1832;BME280;1680;48.106;11.708;2023-12-07T01:09:54;95775.84;;;1.36;100.00
1832;BME280;1680;48.106;11.708;2023-12-07T01:12:21;95776.97;;;1.34;100.00
1832;BME280;1680;48.106;11.708;2023-12-07T01:14:48;95779.25;;;1.37;100.00
1832;BME280;1680;48.106;11.708;2023-12-07T01:17:15;95782.78;;;1.36;100.00
1832;BME280;1680;48.106;11.708;2023-12-07T01:19:43;95779.25;;;1.37;100.00
1832;BME280;1680;48.106;11.708;2023-12-07T01:22:11;95782.31;;;1.32;100.00
1832;BME280;1680;48.106;11.708;2023-12-07T01:24:38;95778.25;;;1.30;100.00
1832;BME280;1680;48.106;11.708;2023-12-07T01:27:06;95782.47;;;1.23;100.00
1832;BME280;1680;48.106;11.708;2023-12-07T01:29:33;95783.09;;;1.17;100.00
1832;BME280;1680;48.106;11.708;2023-12-07T01:32:00;95785.00;;;1.15;100.00
1832;BME280;1680;48.106;11.708;2023-12-07T01:34:27;95792.13;;;1.13;100.00
1832;BME280;1680;48.106;11.708;2023-12-07T01:36:54;95800.34;;;1.08;100.00
1832;BME280;1680;48.106;11.708;2023-12-07T01:39:22;95801.47;;;1.06;100.00
1832;BME280;1680;48.106;11.708;2023-12-07T01:41:50;95785.94;;;0.90;100.00
1832;BME280;1680;48.106;11.708;2023-12-07T01:44:17;95808.22;;;0.99;100.00
1832;BME280;1680;48.106;11.708;2023-12-07T01:46:45;95803.69;;;0.93;100.00
1832;BME280;1680;48.106;11.708;2023-12-07T01:49:12;95795.78;;;0.87;100.00
1832;BME280;1680;48.106;11.708;2023-12-07T01:51:39;95798.50;;;0.85;100.00
1832;BME280;1680;48.106;11.708;2023-12-07T01:54:06;95800.91;;;0.79;100.00
1832;BME280;1680;48.106;11.708;2023-12-07T01:56:36;95807.84;;;0.78;100.00
1832;BME280;1680;48.106;11.708;2023-12-07T01:59:03;95812.19;;;0.78;100.00
1832;BME280;1680;48.106;11.708;2023-12-07T02:01:30;95812.84;;;0.72;100.00
1832;BME280;1680;48.106;11.708;2023-12-07T02:03:57;95817.88;;;0.81;100.00
1832;BME280;1680;48.106;11.708;2023-12-07T02:06:24;95826.38;;;0.74;100.00
1832;BME280;1680;48.106;11.708;2023-12-07T02:08:52;95823.34;;;0.86;100.00
1832;BME280;1680;48.106;11.708;2023-12-07T02:11:19;95817.22;;;0.87;100.00
1832;BME280;1680;48.106;11.708;2023-12-07T02:13:47;95820.78;;;0.86;100.00
1832;BME280;1680;48.106;11.708;2023-12-07T02:16:21;95821.59;;;0.87;100.00
1832;BME280;1680;48.106;11.708;2023-12-07T02:18:52;95818.19;;;0.86;100.00
1832;BME280;1680;48.106;11.708;2023-12-07T02:21:27;95810.75;;;0.83;100.00
1832;BME280;1680;48.106;11.708;2023-12-07T02:23:57;95833.06;;;0.92;100.00
1832;BME280;1680;48.106;11.708;2023-12-07T02:26:31;95815.25;;;0.73;100.00
1832;BME280;1680;48.106;11.708;2023-12-07T02:28:58;95839.19;;;0.91;100.00
1832;BME280;1680;48.106;11.708;2023-12-07T02:31:26;95836.59;;;0.91;100.00
1832;BME280;1680;48.106;11.708;2023-12-07T02:33:53;95833.41;;;0.97;100.00
1832;BME280;1680;48.106;11.708;2023-12-07T02:36:22;95844.88;;;1.02;100.00
1832;BME280;1680;48.106;11.708;2023-12-07T02:38:51;95844.72;;;1.04;100.00
1832;BME280;1680;48.106;11.708;2023-12-07T02:41:20;95839.53;;;1.04;100.00
1832;BME280;1680;48.106;11.708;2023-12-07T02:43:49;95840.50;;;1.03;100.00
1832;BME280;1680;48.106;11.708;2023-12-07T02:46:17;95851.50;;;1.05;100.00
1832;BME280;1680;48.106;11.708;2023-12-07T02:48:45;95849.56;;;1.07;100.00
1832;BME280;1680;48.106;11.708;2023-12-07T02:51:12;95842.78;;;1.06;100.00
1832;BME280;1680;48.106;11.708;2023-12-07T02:53:39;95848.75;;;1.06;100.00
1832;BME280;1680;48.106;11.708;2023-12-07T02:56:07;95854.06;;;1.05;100.00
1832;BME280;1680;48.106;11.708;2023-12-07T02:58:34;95841.81;;;1.07;100.00
1832;BME280;1680;48.106;11.708;2023-12-07T03:01:03;95843.41;;;1.00;100.00
1832;BME280;1680;48.106;11.708;2023-12-07T03:03:30;95846.16;;;0.98;100.00
1832;BME280;1680;48.106;11.708;2023-12-07T03:05:57;95842.91;;;0.96;100.00
1832;BME280;1680;48.106;11.708;2023-12-07T03:08:24;95845.16;;;0.92;100.00
1832;BME280;1680;48.106;11.708;2023-12-07T03:10:53;95852.09;;;0.91;100.00
1832;BME280;1680;48.106;11.708;2023-12-07T03:13:20;95855.63;;;0.90;100.00
1832;BME280;1680;48.106;11.708;2023-12-07T03:15:47;95862.72;;;0.80;100.00
1832;BME280;1680;48.106;11.708;2023-12-07T03:18:16;95857.50;;;0.72;100.00
1832;BME280;1680;48.106;11.708;2023-12-07T03:20:43;95851.00;;;0.68;100.00
1832;BME280;1680;48.106;11.708;2023-12-07T03:23:10;95858.75;;;0.68;100.00
1832;BME280;1680;48.106;11.708;2023-12-07T03:25:39;95859.59;;;0.69;100.00
1832;BME280;1680;48.106;11.708;2023-12-07T03:28:06;95854.91;;;0.72;100.00
1832;BME280;1680;48.106;11.708;2023-12-07T03:30:33;95853.03;;;0.82;100.00
1832;BME280;1680;48.106;11.708;2023-12-07T03:33:00;95855.16;;;0.87;100.00
1832;BME280;1680;48.106;11.708;2023-12-07T03:35:28;95853.19;;;0.81;100.00
1832;BME280;1680;48.106;11.708;2023-12-07T03:37:55;95867.50;;;0.75;100.00
1832;BME280;1680;48.106;11.708;2023-12-07T03:40:23;95865.28;;;0.80;100.00
1832;BME280;1680;48.106;11.708;2023-12-07T03:42:50;95864.50;;;0.88;100.00
1832;BME280;1680;48.106;11.708;2023-12-07T03:45:17;95875.13;;;0.85;100.00
1832;BME280;1680;48.106;11.708;2023-12-07T03:47:44;95879.81;;;0.81;100.00
1832;BME280;1680;48.106;11.708;2023-12-07T03:50:11;95874.94;;;0.78;100.00
1832;BME280;1680;48.106;11.708;2023-12-07T03:52:39;95871.09;;;0.82;100.00
1832;BME280;1680;48.106;11.708;2023-12-07T03:55:07;95862.19;;;0.77;100.00
1832;BME280;1680;48.106;11.708;2023-12-07T03:57:36;95869.50;;;0.81;100.00
1832;BME280;1680;48.106;11.708;2023-12-07T04:00:04;95871.09;;;0.82;100.00
1832;BME280;1680;48.106;11.708;2023-12-07T04:02:33;95873.03;;;0.80;100.00
1832;BME280;1680;48.106;11.708;2023-12-07T04:05:00;95871.91;;;0.83;100.00
1832;BME280;1680;48.106;11.708;2023-12-07T04:07:28;95884.97;;;0.81;100.00
1832;BME280;1680;48.106;11.708;2023-12-07T04:09:56;95863.16;;;0.76;100.00
1832;BME280;1680;48.106;11.708;2023-12-07T04:12:23;95887.56;;;0.89;100.00
1832;BME280;1680;48.106;11.708;2023-12-07T04:14:51;95894.34;;;0.90;100.00
1832;BME280;1680;48.106;11.708;2023-12-07T04:17:18;95887.94;;;0.94;100.00
1832;BME280;1680;48.106;11.708;2023-12-07T04:19:46;95890.19;;;0.97;100.00
1832;BME280;1680;48.106;11.708;2023-12-07T04:22:13;95888.25;;;0.99;100.00
1832;BME280;1680;48.106;11.708;2023-12-07T04:24:40;95886.63;;;0.98;100.00
1832;BME280;1680;48.106;11.708;2023-12-07T04:27:08;95870.78;;;0.85;100.00
1832;BME280;1680;48.106;11.708;2023-12-07T04:29:35;95887.56;;;0.89;100.00
1832;BME280;1680;48.106;11.708;2023-12-07T04:32:03;95884.63;;;0.84;100.00
1832;BME280;1680;48.106;11.708;2023-12-07T04:34:30;95887.69;;;0.80;100.00
1832;BME280;1680;48.106;11.708;2023-12-07T04:36:57;95892.00;;;0.71;100.00
1832;BME280;1680;48.106;11.708;2023-12-07T04:39:24;95900.88;;;0.69;100.00
1832;BME280;1680;48.106;11.708;2023-12-07T04:41:52;95894.84;;;0.60;100.00
1832;BME280;1680;48.106;11.708;2023-12-07T04:44:20;95900.31;;;0.57;100.00
1832;BME280;1680;48.106;11.708;2023-12-07T04:46:47;95847.66;;;0.17;100.00
1832;BME280;1680;48.106;11.708;2023-12-07T04:49:14;95907.34;;;0.47;100.00
1832;BME280;1680;48.106;11.708;2023-12-07T04:51:42;95907.00;;;0.42;100.00
1832;BME280;1680;48.106;11.708;2023-12-07T04:54:11;95916.72;;;0.48;100.00
1832;BME280;1680;48.106;11.708;2023-12-07T04:56:40;95917.38;;;0.50;100.00
1832;BME280;1680;48.106;11.708;2023-12-07T04:59:07;95918.03;;;0.52;100.00
1832;BME280;1680;48.106;11.708;2023-12-07T05:01:36;95915.94;;;0.56;100.00
1832;BME280;1680;48.106;11.708;2023-12-07T05:04:04;95914.81;;;0.58;100.00
1832;BME280;1680;48.106;11.708;2023-12-07T05:06:31;95900.56;;;0.46;100.00
1832;BME280;1680;48.106;11.708;2023-12-07T05:08:59;95914.16;;;0.56;100.00
1832;BME280;1680;48.106;11.708;2023-12-07T05:11:26;95910.78;;;0.56;100.00
1832;BME280;1680;48.106;11.708;2023-12-07T05:13:53;95908.81;;;0.50;100.00
1832;BME280;1680;48.106;11.708;2023-12-07T05:16:20;95896.69;;;0.42;100.00
1832;BME280;1680;48.106;11.708;2023-12-07T05:18:49;95906.03;;;0.43;100.00
1832;BME280;1680;48.106;11.708;2023-12-07T05:21:16;95895.03;;;0.33;100.00
1832;BME280;1680;48.106;11.708;2023-12-07T05:23:43;95908.56;;;0.35;100.00
1832;BME280;1680;48.106;11.708;2023-12-07T05:26:10;95902.38;;;0.28;100.00
1832;BME280;1680;48.106;11.708;2023-12-07T05:28:37;95901.72;;;0.26;100.00
1832;BME280;1680;48.106;11.708;2023-12-07T05:31:04;95903.50;;;0.26;100.00
1832;BME280;1680;48.106;11.708;2023-12-07T05:33:32;95909.13;;;0.21;100.00
1832;BME280;1680;48.106;11.708;2023-12-07T05:36:00;95912.78;;;0.19;100.00
1832;BME280;1680;48.106;11.708;2023-12-07T05:38:28;95905.88;;;0.19;100.00
1832;BME280;1680;48.106;11.708;2023-12-07T05:40:55;95910.22;;;0.19;100.00
1832;BME280;1680;48.106;11.708;2023-12-07T05:43:23;95908.16;;;0.22;100.00
1832;BME280;1680;48.106;11.708;2023-12-07T05:45:51;95902.03;;;0.23;100.00
1832;BME280;1680;48.106;11.708;2023-12-07T05:48:18;95913.31;;;0.22;100.00
1832;BME280;1680;48.106;11.708;2023-12-07T05:50:45;95906.97;;;0.17;100.00
1832;BME280;1680;48.106;11.708;2023-12-07T05:53:13;95915.81;;;0.14;100.00
1832;BME280;1680;48.106;11.708;2023-12-07T05:55:41;95899.97;;;0.09;100.00
1832;BME280;1680;48.106;11.708;2023-12-07T05:58:10;95911.59;;;0.05;100.00
1832;BME280;1680;48.106;11.708;2023-12-07T06:00:37;95905.09;;;0.01;100.00
1832;BME280;1680;48.106;11.708;2023-12-07T06:03:05;95908.91;;;-0.03;100.00
1832;BME280;1680;48.106;11.708;2023-12-07T06:05:34;95901.47;;;-0.05;100.00
1832;BME280;1680;48.106;11.708;2023-12-07T06:08:04;95904.06;;;-0.05;100.00
1832;BME280;1680;48.106;11.708;2023-12-07T06:10:33;95898.78;;;-0.04;100.00
1832;BME280;1680;48.106;11.708;2023-12-07T06:13:01;95896.78;;;-0.10;100.00
1832;BME280;1680;48.106;11.708;2023-12-07T06:15:28;95891.13;;;-0.13;100.00
1832;BME280;1680;48.106;11.708;2023-12-07T06:17:55;95898.47;;;-0.18;100.00
1832;BME280;1680;48.106;11.708;2023-12-07T06:20:23;95907.16;;;-0.19;100.00
1832;BME280;1680;48.106;11.708;2023-12-07T06:22:50;95903.91;;;-0.21;100.00
1832;BME280;1680;48.106;11.708;2023-12-07T06:25:17;95894.22;;;-0.27;100.00
1832;BME280;1680;48.106;11.708;2023-12-07T06:27:46;95862.44;;;-0.53;100.00
1832;BME280;1680;48.106;11.708;2023-12-07T06:30:13;95910.94;;;-0.31;100.00
1832;BME280;1680;48.106;11.708;2023-12-07T06:32:40;95900.84;;;-0.42;100.00
1832;BME280;1680;48.106;11.708;2023-12-07T06:35:09;95906.88;;;-0.34;100.00
1832;BME280;1680;48.106;11.708;2023-12-07T06:37:38;95914.06;;;-0.37;100.00
1832;BME280;1680;48.106;11.708;2023-12-07T06:40:08;95910.19;;;-0.41;100.00
1832;BME280;1680;48.106;11.708;2023-12-07T06:42:35;95918.59;;;-0.39;100.00
1832;BME280;1680;48.106;11.708;2023-12-07T06:45:05;95906.56;;;-0.48;100.00
1832;BME280;1680;48.106;11.708;2023-12-07T06:47:36;95912.38;;;-0.46;100.00
1832;BME280;1680;48.106;11.708;2023-12-07T06:50:04;95910.38;;;-0.52;100.00
1832;BME280;1680;48.106;11.708;2023-12-07T06:52:33;95922.31;;;-0.51;100.00
1832;BME280;1680;48.106;11.708;2023-12-07T06:55:01;95918.78;;;-0.50;100.00
1832;BME280;1680;48.106;11.708;2023-12-07T06:57:28;95920.19;;;-0.56;100.00
1832;BME280;1680;48.106;11.708;2023-12-07T06:59:55;95916.44;;;-0.61;100.00
1832;BME280;1680;48.106;11.708;2023-12-07T07:02:24;95922.53;;;-0.62;100.00
1832;BME280;1680;48.106;11.708;2023-12-07T07:04:51;95924.31;;;-0.63;100.00
1832;BME280;1680;48.106;11.708;2023-12-07T07:07:18;95924.31;;;-0.63;100.00
1832;BME280;1680;48.106;11.708;2023-12-07T07:09:46;95934.44;;;-0.61;100.00
1832;BME280;1680;48.106;11.708;2023-12-07T07:12:13;95924.81;;;-0.59;100.00
1832;BME280;1680;48.106;11.708;2023-12-07T07:14:41;95926.72;;;-0.61;100.00
1832;BME280;1680;48.106;11.708;2023-12-07T07:17:09;95935.41;;;-0.62;100.00
1832;BME280;1680;48.106;11.708;2023-12-07T07:19:37;95926.06;;;-0.63;100.00
1832;BME280;1680;48.106;11.708;2023-12-07T07:22:04;95925.94;;;-0.62;100.00
1832;BME280;1680;48.106;11.708;2023-12-07T07:24:31;95929.13;;;-0.60;100.00
1832;BME280;1680;48.106;11.708;2023-12-07T07:26:58;95918.44;;;-0.55;100.00
1832;BME280;1680;48.106;11.708;2023-12-07T07:29:25;95923.44;;;-0.54;100.00
1832;BME280;1680;48.106;11.708;2023-12-07T07:31:53;95928.56;;;-0.54;100.00
1832;BME280;1680;48.106;11.708;2023-12-07T07:34:21;95928.28;;;-0.51;100.00
1832;BME280;1680;48.106;11.708;2023-12-07T07:36:49;95927.19;;;-0.48;100.00
1832;BME280;1680;48.106;11.708;2023-12-07T07:39:17;95928.50;;;-0.44;100.00
1832;BME280;1680;48.106;11.708;2023-12-07T07:41:44;95931.75;;;-0.42;100.00
1832;BME280;1680;48.106;11.708;2023-12-07T07:44:11;95926.44;;;-0.41;100.00
1832;BME280;1680;48.106;11.708;2023-12-07T07:46:40;95922.78;;;-0.38;100.00
1832;BME280;1680;48.106;11.708;2023-12-07T07:49:07;95934.78;;;-0.29;100.00
1832;BME280;1680;48.106;11.708;2023-12-07T07:51:34;95939.19;;;-0.22;100.00
1832;BME280;1680;48.106;11.708;2023-12-07T07:54:03;95935.38;;;-0.18;100.00
1832;BME280;1680;48.106;11.708;2023-12-07T07:56:30;95940.59;;;-0.10;100.00
1832;BME280;1680;48.106;11.708;2023-12-07T07:58:57;95937.28;;;-0.03;100.00
1832;BME280;1680;48.106;11.708;2023-12-07T08:01:26;95927.91;;;-0.03;100.00
1832;BME280;1680;48.106;11.708;2023-12-07T08:03:53;95937.19;;;0.07;100.00
1832;BME280;1680;48.106;11.708;2023-12-07T08:06:20;95936.06;;;0.09;100.00
1832;BME280;1680;48.106;11.708;2023-12-07T08:08:47;95938.78;;;0.25;100.00
1832;BME280;1680;48.106;11.708;2023-12-07T08:11:16;95935.25;;;0.26;100.00
1832;BME280;1680;48.106;11.708;2023-12-07T08:13:43;95931.91;;;0.34;100.00
1832;BME280;1680;48.106;11.708;2023-12-07T08:16:11;95932.75;;;0.34;100.00
1832;BME280;1680;48.106;11.708;2023-12-07T08:18:38;95933.75;;;0.41;100.00
1832;BME280;1680;48.106;11.708;2023-12-07T08:21:06;95932.03;;;0.50;100.00
1832;BME280;1680;48.106;11.708;2023-12-07T08:23:34;95942.91;;;0.61;100.00
1832;BME280;1680;48.106;11.708;2023-12-07T08:26:01;95939.75;;;0.67;100.00
1832;BME280;1680;48.106;11.708;2023-12-07T08:28:29;95940.44;;;0.77;100.00
1832;BME280;1680;48.106;11.708;2023-12-07T08:30:57;95932.03;;;0.75;100.00
1832;BME280;1680;48.106;11.708;2023-12-07T08:33:24;95933.34;;;0.79;100.00
1832;BME280;1680;48.106;11.708;2023-12-07T08:35:51;95931.28;;;0.91;100.00
1832;BME280;1680;48.106;11.708;2023-12-07T08:38:20;95932.00;;;1.00;100.00
1832;BME280;1680;48.106;11.708;2023-12-07T08:40:49;95934.41;;;1.02;100.00
1832;BME280;1680;48.106;11.708;2023-12-07T08:43:18;95930.94;;;1.11;100.00
1832;BME280;1680;48.106;11.708;2023-12-07T08:45:46;95930.81;;;1.28;100.00
1832;BME280;1680;48.106;11.708;2023-12-07T08:48:13;95930.81;;;1.28;100.00
1832;BME280;1680;48.106;11.708;2023-12-07T08:50:40;95933.22;;;1.30;100.00
1832;BME280;1680;48.106;11.708;2023-12-07T08:53:08;95918.75;;;1.37;100.00
1832;BME280;1680;48.106;11.708;2023-12-07T08:55:35;95924.25;;;1.42;100.00
1832;BME280;1680;48.106;11.708;2023-12-07T08:58:02;95918.75;;;1.45;100.00
1832;BME280;1680;48.106;11.708;2023-12-07T09:00:30;95919.41;;;1.47;100.00
1832;BME280;1680;48.106;11.708;2023-12-07T09:02:59;95933.03;;;1.57;100.00
1832;BME280;1680;48.106;11.708;2023-12-07T09:05:27;95924.94;;;1.60;100.00
1832;BME280;1680;48.106;11.708;2023-12-07T09:07:55;95921.22;;;1.62;100.00
1832;BME280;1680;48.106;11.708;2023-12-07T09:10:22;95925.28;;;1.65;100.00
1832;BME280;1680;48.106;11.708;2023-12-07T09:12:50;95905.88;;;1.61;100.00
1832;BME280;1680;48.106;11.708;2023-12-07T09:15:17;95924.97;;;1.76;100.00
1832;BME280;1680;48.106;11.708;2023-12-07T09:17:44;95920.47;;;1.86;100.00
1832;BME280;1680;48.106;11.708;2023-12-07T09:20:12;95914.66;;;1.99;100.00
1832;BME280;1680;48.106;11.708;2023-12-07T09:22:41;95924.84;;;2.09;100.00
1832;BME280;1680;48.106;11.708;2023-12-07T09:25:09;95923.84;;;2.10;100.00
1832;BME280;1680;48.106;11.708;2023-12-07T09:27:36;95921.75;;;2.21;100.00
1832;BME280;1680;48.106;11.708;2023-12-07T09:30:04;95911.41;;;2.21;100.00
1832;BME280;1680;48.106;11.708;2023-12-07T09:32:33;95917.56;;;2.20;100.00
1832;BME280;1680;48.106;11.708;2023-12-07T09:35:05;95923.03;;;2.33;100.00
1832;BME280;1680;48.106;11.708;2023-12-07T09:37:34;95914.66;;;2.31;100.00
1832;BME280;1680;48.106;11.708;2023-12-07T09:40:01;95916.59;;;2.37;100.00
1832;BME280;1680;48.106;11.708;2023-12-07T09:42:31;95915.44;;;2.40;100.00
1832;BME280;1680;48.106;11.708;2023-12-07T09:44:58;95915.63;;;2.46;100.00
1832;BME280;1680;48.106;11.708;2023-12-07T09:47:27;95921.41;;;2.56;100.00
1832;BME280;1680;48.106;11.708;2023-12-07T09:49:55;95920.13;;;2.52;100.00
1832;BME280;1680;48.106;11.708;2023-12-07T09:52:23;95914.31;;;2.58;100.00
1832;BME280;1680;48.106;11.708;2023-12-07T09:54:52;95913.97;;;2.61;100.00
1832;BME280;1680;48.106;11.708;2023-12-07T09:57:21;95908.13;;;2.67;100.00
1832;BME280;1680;48.106;11.708;2023-12-07T09:59:49;95904.56;;;2.68;100.00
1832;BME280;1680;48.106;11.708;2023-12-07T10:02:16;95895.19;;;2.75;100.00
1832;BME280;1680;48.106;11.708;2023-12-07T10:04:44;95898.41;;;2.77;100.00
1832;BME280;1680;48.106;11.708;2023-12-07T10:07:11;95896.09;;;2.90;100.00
1832;BME280;1680;48.106;11.708;2023-12-07T10:09:38;95897.88;;;2.89;100.00
1832;BME280;1680;48.106;11.708;2023-12-07T10:12:08;95886.66;;;3.05;100.00
1832;BME280;1680;48.106;11.708;2023-12-07T10:14:35;95882.53;;;2.80;100.00
1832;BME280;1680;48.106;11.708;2023-12-07T10:17:03;95887.38;;;2.83;100.00
1832;BME280;1680;48.106;11.708;2023-12-07T10:19:31;95881.22;;;2.84;100.00
1832;BME280;1680;48.106;11.708;2023-12-07T10:21:58;95882.38;;;2.82;100.00
1832;BME280;1680;48.106;11.708;2023-12-07T10:24:25;95885.63;;;2.84;100.00
1832;BME280;1680;48.106;11.708;2023-12-07T10:26:54;95890.28;;;2.88;100.00
1832;BME280;1680;48.106;11.708;2023-12-07T10:29:23;95882.19;;;2.83;100.00
1832;BME280;1680;48.106;11.708;2023-12-07T10:31:59;95882.66;;;2.86;100.00
1832;BME280;1680;48.106;11.708;2023-12-07T10:34:28;95877.34;;;2.88;100.00
1832;BME280;1680;48.106;11.708;2023-12-07T10:36:55;95878.25;;;2.95;100.00
1832;BME280;1680;48.106;11.708;2023-12-07T10:39:23;95872.13;;;2.96;100.00
1832;BME280;1680;48.106;11.708;2023-12-07T10:41:52;95869.31;;;3.05;100.00
1832;BME280;1680;48.106;11.708;2023-12-07T10:44:25;95878.59;;;3.00;100.00
1832;BME280;1680;48.106;11.708;2023-12-07T10:46:54;95873.72;;;2.97;100.00
1832;BME280;1680;48.106;11.708;2023-12-07T10:49:22;95862.09;;;2.93;100.00
1832;BME280;1680;48.106;11.708;2023-12-07T10:52:00;95855.31;;;2.92;100.00
1832;BME280;1680;48.106;11.708;2023-12-07T10:54:35;95852.34;;;3.33;100.00
1832;BME280;1680;48.106;11.708;2023-12-07T10:57:09;95846.13;;;3.20;100.00
1832;BME280;1680;48.106;11.708;2023-12-07T10:59:42;95850.53;;;3.11;100.00
1832;BME280;1680;48.106;11.708;2023-12-07T11:02:12;95851.19;;;3.13;100.00
1832;BME280;1680;48.106;11.708;2023-12-07T11:04:41;95839.41;;;3.03;100.00
1832;BME280;1680;48.106;11.708;2023-12-07T11:07:12;95837.28;;;3.06;100.00
1832;BME280;1680;48.106;11.708;2023-12-07T11:09:46;95845.81;;;3.15;100.00
1832;BME280;1680;48.106;11.708;2023-12-07T11:12:20;95840.97;;;3.12;100.00
1832;BME280;1680;48.106;11.708;2023-12-07T11:14:53;95841.59;;;3.14;100.00
1832;BME280;1680;48.106;11.708;2023-12-07T11:17:21;95838.69;;;3.09;100.00
1832;BME280;1680;48.106;11.708;2023-12-07T11:19:48;95837.72;;;3.10;100.00
1832;BME280;1680;48.106;11.708;2023-12-07T11:22:16;95838.75;;;3.01;100.00
1832;BME280;1680;48.106;11.708;2023-12-07T11:24:52;95808.38;;;2.87;100.00
1832;BME280;1680;48.106;11.708;2023-12-07T11:27:21;95827.41;;;3.02;100.00
1832;BME280;1680;48.106;11.708;2023-12-07T11:29:48;95830.78;;;3.10;100.00
1832;BME280;1680;48.106;11.708;2023-12-07T11:32:17;95830.94;;;3.09;100.00
1832;BME280;1680;48.106;11.708;2023-12-07T11:34:44;95828.09;;;2.96;100.00
1832;BME280;1680;48.106;11.708;2023-12-07T11:37:15;95818.25;;;2.91;100.00
1832;BME280;1680;48.106;11.708;2023-12-07T11:39:43;95821.13;;;2.96;100.00
1832;BME280;1680;48.106;11.708;2023-12-07T11:42:12;95814.34;;;2.95;100.00
1832;BME280;1680;48.106;11.708;2023-12-07T11:44:42;95817.91;;;2.94;100.00
1832;BME280;1680;48.106;11.708;2023-12-07T11:47:10;95811.56;;;2.97;100.00
1832;BME280;1680;48.106;11.708;2023-12-07T11:49:43;95806.38;;;3.05;100.00
1832;BME280;1680;48.106;11.708;2023-12-07T11:52:14;95804.22;;;3.08;100.00
1832;BME280;1680;48.106;11.708;2023-12-07T11:54:43;95802.75;;;3.14;99.69
1832;BME280;1680;48.106;11.708;2023-12-07T11:57:11;95788.81;;;3.15;95.57
1832;BME280;1680;48.106;11.708;2023-12-07T11:59:38;95799.34;;;3.13;98.59
1832;BME280;1680;48.106;11.708;2023-12-07T12:02:05;95798.41;;;4.62;100.00
1832;BME280;1680;48.106;11.708;2023-12-07T12:04:32;95777.16;;;6.61;100.00
1832;BME280;1680;48.106;11.708;2023-12-07T12:07:01;95804.28;;;5.70;100.00
1832;BME280;1680;48.106;11.708;2023-12-07T12:09:28;95788.94;;;5.04;100.00
1832;BME280;1680;48.106;11.708;2023-12-07T12:11:56;95791.25;;;4.49;100.00
1832;BME280;1680;48.106;11.708;2023-12-07T12:14:26;95783.59;;;4.04;100.00
1832;BME280;1680;48.106;11.708;2023-12-07T12:16:53;95771.34;;;3.76;100.00
1832;BME280;1680;48.106;11.708;2023-12-07T12:19:22;95795.63;;;3.61;100.00
1832;BME280;1680;48.106;11.708;2023-12-07T12:21:50;95773.84;;;3.47;100.00
1832;BME280;1680;48.106;11.708;2023-12-07T12:24:18;95793.34;;;3.43;100.00
1832;BME280;1680;48.106;11.708;2023-12-07T12:26:45;95784.44;;;3.38;100.00
1832;BME280;1680;48.106;11.708;2023-12-07T12:29:14;95783.19;;;3.34;100.00
1832;BME280;1680;48.106;11.708;2023-12-07T12:31:41;95784.84;;;3.27;100.00
1832;BME280;1680;48.106;11.708;2023-12-07T12:34:10;95775.97;;;3.21;100.00
1832;BME280;1680;48.106;11.708;2023-12-07T12:36:38;95766.47;;;3.14;100.00
1832;BME280;1680;48.106;11.708;2023-12-07T12:39:06;95761.28;;;3.14;99.03
1832;BME280;1680;48.106;11.708;2023-12-07T12:41:35;95748.41;;;3.06;100.00
1832;BME280;1680;48.106;11.708;2023-12-07T12:44:02;95751.16;;;3.04;96.75
1832;BME280;1680;48.106;11.708;2023-12-07T12:46:29;95769.78;;;3.00;100.00
1832;BME280;1680;48.106;11.708;2023-12-07T12:48:57;95763.81;;;2.99;100.00
1832;BME280;1680;48.106;11.708;2023-12-07T12:51:26;95754.13;;;2.93;100.00
1832;BME280;1680;48.106;11.708;2023-12-07T12:53:54;95761.38;;;2.98;100.00
1832;BME280;1680;48.106;11.708;2023-12-07T12:56:21;95740.72;;;2.90;100.00
1832;BME280;1680;48.106;11.708;2023-12-07T12:58:51;95744.28;;;2.89;100.00
1832;BME280;1680;48.106;11.708;2023-12-07T13:01:18;95744.94;;;2.91;100.00
1832;BME280;1680;48.106;11.708;2023-12-07T13:03:46;95745.59;;;2.85;100.00
1832;BME280;1680;48.106;11.708;2023-12-07T13:06:14;95737.19;;;2.83;100.00
1832;BME280;1680;48.106;11.708;2023-12-07T13:08:41;95730.06;;;2.85;100.00
1832;BME280;1680;48.106;11.708;2023-12-07T13:11:09;95733.63;;;2.84;100.00
1832;BME280;1680;48.106;11.708;2023-12-07T13:13:36;95722.09;;;2.86;100.00